Terminal Aerodrome Forecast
Issued by NWS

Home | Current Version | Previous Version | Text Only | Print | Product List | Glossary Off
Versions: 1 2 3 4 5 6 7 8 9 10 11 12 13 14 15 16 17 18 19 20

000
FTUS43 KBIS 192332
TAFDIK
TAF
KDIK 192332Z 2000/2024 VRB05KT P6SM BKN080
     FM200600 28009KT P6SM VCSH BKN050
     FM201000 27010KT P6SM BKN035
     FM201400 27012KT P6SM SCT110=

USA.gov is the U.S. government's official web portal to all federal, state and local government web resources and services.